Time;durP1;ratioP1;P1;durP2;ratioP2;P2;SDS_P1;SDS_P2;PMS_P1;PMS_P2;Temp;Humidity;BMP_temperature;BMP_pressure;BME280_temperature;BME280_humidity;BME280_pressure;Samples;Min_cycle;Max_cycle;Signal;HPM_P1;HPM_P2
2021/06/14 00:00:20;;;;;;;24.55;22.35;;;;;;;;;;4414423;32;20125;-85
2021/06/14 00:02:52;;;;;;;41.90;37.17;;;;;;;;;;4409490;32;20053;-84
2021/06/14 00:05:29;;;;;;;42.83;38.20;;;;;;;;;;4409324;32;20072;-83
2021/06/14 00:08:00;;;;;;;43.35;38.85;;;;;;;;;;4394268;32;20074;-83
2021/06/14 00:10:32;;;;;;;41.03;36.72;;;;;;;;;;4409402;32;20043;-83
2021/06/14 00:13:05;;;;;;;44.33;39.72;;;;;;;;;;4415012;32;20541;-84
2021/06/14 00:15:36;;;;;;;41.80;37.33;;;;;;;;;;4403693;32;20273;-82
2021/06/14 00:18:07;;;;;;;42.53;37.15;;;;;;;;;;4409143;32;20109;-85
2021/06/14 00:20:36;;;;;;;60.25;53.53;;;;;;;;;;4396800;32;20688;-85
2021/06/14 00:23:08;;;;;;;58.13;51.80;;;;;;;;;;4409205;32;20121;-84
2021/06/14 00:25:39;;;;;;;64.85;57.58;;;;;;;;;;4407831;32;20274;-82
2021/06/14 00:28:19;;;;;;;65.10;56.78;;;;;;;;;;4396416;32;20089;-85
2021/06/14 00:30:51;;;;;;;62.03;55.35;;;;;;;;;;4406179;32;20390;-84
2021/06/14 00:33:22;;;;;;;60.60;54.33;;;;;;;;;;4391809;32;20053;-85
2021/06/14 00:35:53;;;;;;;60.28;53.70;;;;;;;;;;4407970;32;20884;-83
2021/06/14 00:38:25;;;;;;;59.55;53.20;;;;;;;;;;4403981;32;20140;-84
2021/06/14 00:40:56;;;;;;;68.80;60.83;;;;;;;;;;4406187;32;20117;-85
2021/06/14 00:43:27;;;;;;;58.20;52.05;;;;;;;;;;4413127;32;20170;-85
2021/06/14 00:45:59;;;;;;;52.75;47.88;;;;;;;;;;4398844;32;20201;-84
2021/06/14 00:48:30;;;;;;;53.85;48.80;;;;;;;;;;4399235;32;20066;-84
2021/06/14 00:51:03;;;;;;;54.45;49.10;;;;;;;;;;4407603;32;20498;-85
2021/06/14 00:53:37;;;;;;;54.67;49.38;;;;;;;;;;4406496;32;20101;-87
2021/06/14 00:56:10;;;;;;;43.05;38.75;;;;;;;;;;4408540;32;20097;-89
2021/06/14 00:58:42;;;;;;;66.22;59.25;;;;;;;;;;4410388;32;20065;-85
2021/06/14 01:01:14;;;;;;;62.58;56.30;;;;;;;;;;4395404;32;20148;-86
2021/06/14 01:03:46;;;;;;;67.05;57.75;;;;;;;;;;4404020;32;20923;-85
2021/06/14 01:06:15;;;;;;;64.28;57.28;;;;;;;;;;4394839;32;20058;-83
2021/06/14 01:08:48;;;;;;;65.72;56.65;;;;;;;;;;4400386;32;20098;-85
2021/06/14 01:11:30;;;;;;;57.95;49.50;;;;;;;;;;4409850;32;20096;-85
2021/06/14 01:14:08;;;;;;;58.55;49.90;;;;;;;;;;4406913;32;20080;-83
2021/06/14 01:17:08;;;;;;;58.05;51.75;;;;;;;;;;4410881;32;20265;-84
2021/06/14 01:19:50;;;;;;;57.92;51.33;;;;;;;;;;4348161;32;20129;-84
2021/06/14 01:22:41;;;;;;;57.03;50.95;;;;;;;;;;4416013;32;20475;-84
2021/06/14 01:25:24;;;;;;;43.58;39.33;;;;;;;;;;4409187;32;20054;-84
2021/06/14 01:27:57;;;;;;;46.20;41.33;;;;;;;;;;4411441;32;20793;-84
2021/06/14 01:30:34;;;;;;;45.35;40.80;;;;;;;;;;4408204;32;20066;-83
2021/06/14 01:33:08;;;;;;;43.92;39.63;;;;;;;;;;4401794;32;20065;-85
2021/06/14 01:35:42;;;;;;;56.90;51.20;;;;;;;;;;4417071;32;20066;-82
2021/06/14 01:38:13;;;;;;;67.93;60.58;;;;;;;;;;4412506;32;20467;-84
2021/06/14 01:40:47;;;;;;;67.43;60.08;;;;;;;;;;4416510;32;20061;-84
2021/06/14 01:43:20;;;;;;;68.37;60.38;;;;;;;;;;4409106;32;20054;-83
2021/06/14 01:45:55;;;;;;;67.50;60.25;;;;;;;;;;4417755;32;20106;-83
2021/06/14 01:48:24;;;;;;;58.65;52.38;;;;;;;;;;4414799;32;20509;-85
2021/06/14 01:50:56;;;;;;;65.15;58.28;;;;;;;;;;4397031;32;20123;-86
2021/06/14 01:53:28;;;;;;;67.70;60.50;;;;;;;;;;4411639;32;20050;-83
2021/06/14 01:55:59;;;;;;;49.92;44.60;;;;;;;;;;4413794;32;20081;-84
2021/06/14 01:58:31;;;;;;;45.53;40.92;;;;;;;;;;4411888;32;20561;-84
2021/06/14 02:01:04;;;;;;;44.35;39.67;;;;;;;;;;4406432;32;20119;-85
2021/06/14 02:03:36;;;;;;;46.72;41.83;;;;;;;;;;4399780;32;20129;-85
2021/06/14 02:06:08;;;;;;;44.38;39.55;;;;;;;;;;4399860;32;20124;-84
2021/06/14 02:08:40;;;;;;;46.60;41.90;;;;;;;;;;4411834;32;20053;-84
2021/06/14 02:11:12;;;;;;;46.30;41.60;;;;;;;;;;4391662;32;20106;-83
2021/06/14 02:13:44;;;;;;;45.22;39.95;;;;;;;;;;4404559;32;20057;-84
2021/06/14 02:16:16;;;;;;;45.15;40.40;;;;;;;;;;4399741;32;20140;-84
2021/06/14 02:18:48;;;;;;;45.85;41.00;;;;;;;;;;4408876;32;20076;-85
2021/06/14 02:21:20;;;;;;;43.33;38.97;;;;;;;;;;4393831;32;20066;-85
2021/06/14 02:23:49;;;;;;;46.50;41.53;;;;;;;;;;4406959;32;20090;-86
2021/06/14 02:26:20;;;;;;;44.75;39.88;;;;;;;;;;4400321;32;20130;-86
2021/06/14 02:28:49;;;;;;;43.05;38.63;;;;;;;;;;4393409;32;20128;-83
2021/06/14 02:31:21;;;;;;;45.50;40.58;;;;;;;;;;4395263;32;20189;-85
2021/06/14 02:33:53;;;;;;;44.05;39.10;;;;;;;;;;4406564;32;20463;-86
2021/06/14 02:36:25;;;;;;;44.53;39.97;;;;;;;;;;4411200;32;20122;-85
2021/06/14 02:38:59;;;;;;;47.25;42.35;;;;;;;;;;4408937;32;20078;-85
2021/06/14 02:41:30;;;;;;;46.08;41.40;;;;;;;;;;4391622;32;20318;-85
2021/06/14 02:44:05;;;;;;;47.28;42.78;;;;;;;;;;4406589;32;20046;-85
2021/06/14 02:46:39;;;;;;;45.17;40.35;;;;;;;;;;4407304;32;20093;-84
2021/06/14 02:49:14;;;;;;;46.10;41.50;;;;;;;;;;4405412;32;20080;-86
2021/06/14 02:51:45;;;;;;;44.13;39.70;;;;;;;;;;4410985;32;20150;-85
2021/06/14 02:54:18;;;;;;;43.55;39.05;;;;;;;;;;4406955;32;20050;-86
2021/06/14 02:56:50;;;;;;;61.07;54.50;;;;;;;;;;4404419;32;20084;-86
2021/06/14 02:59:21;;;;;;;61.15;54.75;;;;;;;;;;4406746;32;20658;-85
2021/06/14 03:01:53;;;;;;;60.12;53.75;;;;;;;;;;4408856;32;20153;-84
2021/06/14 03:04:26;;;;;;;59.22;52.85;;;;;;;;;;4394441;32;20982;-85
2021/06/14 03:06:58;;;;;;;57.85;51.85;;;;;;;;;;4404970;32;20111;-85
2021/06/14 03:09:31;;;;;;;58.80;52.67;;;;;;;;;;4403768;32;20166;-83
2021/06/14 03:12:09;;;;;;;60.75;53.60;;;;;;;;;;4410465;26;20055;-93
2021/06/14 03:15:01;;;;;;;;;;;;;;;;;;;;;
2021/06/14 03:18:10;;;;;;;58.67;52.45;;;;;;;;;;4382510;32;20162;-94
2021/06/14 03:21:12;;;;;;;68.30;60.83;;;;;;;;;;4349367;32;20050;-94
2021/06/14 03:23:54;;;;;;;46.25;41.50;;;;;;;;;;4382098;32;20087;-94
2021/06/14 03:26:53;;;;;;;41.08;36.78;;;;;;;;;;4371508;32;20054;-94
2021/06/14 03:29:29;;;;;;;40.90;36.58;;;;;;;;;;4368813;32;20074;-93
2021/06/14 03:32:03;;;;;;;40.10;36.20;;;;;;;;;;4373216;32;20655;-93
2021/06/14 03:34:37;;;;;;;44.22;39.75;;;;;;;;;;4381364;32;20095;-93
2021/06/14 03:37:17;;;;;;;71.70;64.12;;;;;;;;;;4384105;32;20054;-96
2021/06/14 03:39:54;;;;;;;70.55;63.50;;;;;;;;;;4356166;32;20070;-95
2021/06/14 03:42:24;;;;;;;69.43;62.45;;;;;;;;;;4366781;32;20395;-96
2021/06/14 03:44:58;;;;;;;59.20;52.83;;;;;;;;;;4368336;32;20078;-96
2021/06/14 03:47:33;;;;;;;59.00;52.72;;;;;;;;;;4356282;32;20432;-96
2021/06/14 03:50:09;;;;;;;56.37;50.65;;;;;;;;;;4358799;32;20082;-95
2021/06/14 03:52:40;;;;;;;56.83;50.95;;;;;;;;;;4373031;32;20168;-96
2021/06/14 03:55:23;;;;;;;57.10;51.37;;;;;;;;;;4381882;32;20059;-96
2021/06/14 03:58:00;;;;;;;57.08;50.83;;;;;;;;;;4368975;32;20122;-95
2021/06/14 04:00:35;;;;;;;57.38;51.28;;;;;;;;;;4356386;32;20091;-96
2021/06/14 04:03:11;;;;;;;44.88;40.22;;;;;;;;;;4365002;32;20064;-96
2021/06/14 04:05:46;;;;;;;43.97;39.47;;;;;;;;;;4365776;32;20071;-94
2021/06/14 04:08:27;;;;;;;43.35;38.95;;;;;;;;;;4366284;32;20212;-96
2021/06/14 04:10:59;;;;;;;47.80;42.85;;;;;;;;;;4377166;32;20671;-96
2021/06/14 04:13:30;;;;;;;;;;;;;;;;;;4364250;32;20121;-95
2021/06/14 04:16:10;;;;;;;47.25;40.92;;;;;;;;;;4367552;32;19958;-96
2021/06/14 04:18:49;;;;;;;42.78;38.15;;;;;;;;;;4373065;32;20055;-96
2021/06/14 04:21:25;;;;;;;43.78;39.28;;;;;;;;;;4354900;32;20541;-95
2021/06/14 04:24:15;;;;;;;40.05;35.75;;;;;;;;;;4356304;32;20125;-96
2021/06/14 04:26:49;;;;;;;42.88;38.15;;;;;;;;;;4363907;32;20094;-95
2021/06/14 04:29:31;;;;;;;45.20;40.22;;;;;;;;;;4369377;32;20093;-96
2021/06/14 04:32:01;;;;;;;46.13;41.05;;;;;;;;;;4368661;32;20089;-96
2021/06/14 04:34:31;;;;;;;48.20;43.00;;;;;;;;;;4368481;32;20085;-96
2021/06/14 04:37:07;;;;;;;29.70;27.25;;;;;;;;;;4356384;32;20431;-95
2021/06/14 04:39:37;;;;;;;28.25;25.85;;;;;;;;;;4371752;32;21705;-94
2021/06/14 04:42:09;;;;;;;31.25;28.65;;;;;;;;;;4354698;32;20097;-96
2021/06/14 04:44:41;;;;;;;29.10;26.48;;;;;;;;;;4367025;32;20612;-96
2021/06/14 04:47:15;;;;;;;34.45;31.62;;;;;;;;;;4368317;32;20079;-94
2021/06/14 04:49:50;;;;;;;34.13;30.98;;;;;;;;;;4370003;32;20420;-95
2021/06/14 04:52:47;;;;;;;33.40;30.33;;;;;;;;;;4378344;32;20072;-95
2021/06/14 04:55:28;;;;;;;32.50;29.58;;;;;;;;;;4372007;32;20059;-96
2021/06/14 04:57:57;;;;;;;32.67;30.08;;;;;;;;;;4369617;32;20090;-95
2021/06/14 05:00:33;;;;;;;34.72;31.80;;;;;;;;;;4382482;32;20694;-96
2021/06/14 05:03:13;;;;;;;28.40;25.95;;;;;;;;;;4368564;32;20051;-96
2021/06/14 05:05:58;;;;;;;44.75;37.70;;;;;;;;;;4356700;32;20060;-96
2021/06/14 05:08:54;;;;;;;58.70;52.85;;;;;;;;;;4368172;32;20143;-96
2021/06/14 05:11:41;;;;;;;61.50;55.70;;;;;;;;;;4364337;32;20125;-96
2021/06/14 05:14:10;;;;;;;59.83;53.83;;;;;;;;;;4366583;32;20067;-96
2021/06/14 05:16:44;;;;;;;49.38;44.15;;;;;;;;;;4365720;32;20193;-95
2021/06/14 05:19:34;;;;;;;50.67;43.90;;;;;;;;;;4358293;32;20040;-96
2021/06/14 05:22:09;;;;;;;47.62;42.50;;;;;;;;;;4355458;32;20714;-93
2021/06/14 05:24:47;;;;;;;50.03;44.67;;;;;;;;;;4369294;32;20095;-96
2021/06/14 05:27:23;;;;;;;55.53;49.53;;;;;;;;;;4356122;32;20059;-95
2021/06/14 05:29:54;;;;;;;49.53;44.55;;;;;;;;;;4367611;32;20109;-96
2021/06/14 05:32:27;;;;;;;52.75;47.25;;;;;;;;;;4368778;32;20070;-96
2021/06/14 05:35:03;;;;;;;52.67;46.83;;;;;;;;;;4365551;32;20112;-95
2021/06/14 05:37:36;;;;;;;47.92;42.30;;;;;;;;;;4366758;32;20129;-95
2021/06/14 05:40:11;;;;;;;40.63;36.45;;;;;;;;;;4354662;32;20673;-93
2021/06/14 05:42:40;;;;;;;42.65;38.47;;;;;;;;;;4353392;32;20837;-95
2021/06/14 05:45:12;;;;;;;42.88;37.72;;;;;;;;;;4363920;32;20091;-95
2021/06/14 05:47:41;;;;;;;41.92;37.72;;;;;;;;;;4356680;32;20536;-94
2021/06/14 05:50:21;;;;;;;40.83;36.60;;;;;;;;;;4366487;32;20651;-95
2021/06/14 05:53:17;;;;;;;42.20;36.15;;;;;;;;;;4371239;32;20075;-96
2021/06/14 05:56:16;;;;;;;59.40;52.90;;;;;;;;;;4366170;32;20052;-95
2021/06/14 05:58:50;;;;;;;58.60;51.78;;;;;;;;;;4356449;32;20108;-96
2021/06/14 06:01:42;;;;;;;62.15;56.35;;;;;;;;;;4369199;32;21024;-96
2021/06/14 06:04:19;;;;;;;61.03;55.28;;;;;;;;;;4356239;32;20109;-94
2021/06/14 06:07:01;;;;;;;52.97;48.08;;;;;;;;;;4369261;32;20055;-96
2021/06/14 06:09:46;;;;;;;48.50;43.85;;;;;;;;;;4370991;32;20140;-95
2021/06/14 06:12:35;;;;;;;48.87;43.97;;;;;;;;;;4355574;32;20116;-96
2021/06/14 06:15:16;;;;;;;65.60;58.50;;;;;;;;;;4365548;32;20179;-96
2021/06/14 06:17:48;;;;;;;62.10;51.47;;;;;;;;;;4366338;32;20062;-95
2021/06/14 06:20:24;;;;;;;57.97;50.40;;;;;;;;;;4374462;32;21457;-96
2021/06/14 06:23:01;;;;;;;37.03;33.75;;;;;;;;;;4361647;32;20095;-95
2021/06/14 06:25:37;;;;;;;38.70;35.40;;;;;;;;;;4366309;32;20154;-94
2021/06/14 06:28:09;;;;;;;58.28;50.33;;;;;;;;;;4357523;32;20150;-96
2021/06/14 06:30:46;;;;;;;55.33;49.35;;;;;;;;;;4368765;32;20109;-96
2021/06/14 06:33:19;;;;;;;40.03;36.53;;;;;;;;;;4375865;32;20125;-95
2021/06/14 06:35:55;;;;;;;40.58;37.28;;;;;;;;;;4363714;32;20495;-94
2021/06/14 06:38:30;;;;;;;54.22;49.28;;;;;;;;;;4354960;32;20056;-95
2021/06/14 06:41:04;;;;;;;47.72;43.92;;;;;;;;;;4366177;32;20549;-96
2021/06/14 06:43:39;;;;;;;29.98;27.35;;;;;;;;;;4368383;32;20439;-95
2021/06/14 06:46:16;;;;;;;29.52;27.23;;;;;;;;;;4372290;32;20067;-95
2021/06/14 06:48:51;;;;;;;37.45;34.33;;;;;;;;;;4357938;32;20117;-96
2021/06/14 06:51:26;;;;;;;35.95;33.15;;;;;;;;;;4359309;32;20052;-95
2021/06/14 06:54:13;;;;;;;33.85;31.25;;;;;;;;;;4355416;32;20098;-95
2021/06/14 06:56:53;;;;;;;43.28;39.28;;;;;;;;;;4367678;32;20103;-93
2021/06/14 06:59:47;;;;;;;41.85;38.15;;;;;;;;;;4363712;32;20078;-93
2021/06/14 07:02:19;;;;;;;45.47;41.53;;;;;;;;;;4368636;32;22052;-94
2021/06/14 07:05:02;;;;;;;44.78;40.88;;;;;;;;;;4352913;32;20109;-95
2021/06/14 07:07:31;;;;;;;44.92;40.83;;;;;;;;;;4365541;32;20102;-96
2021/06/14 07:10:22;;;;;;;42.80;39.10;;;;;;;;;;4368929;32;20125;-95
2021/06/14 07:13:02;;;;;;;48.65;44.38;;;;;;;;;;4378905;32;20138;-95
2021/06/14 07:15:36;;;;;;;49.35;44.72;;;;;;;;;;4365662;32;20063;-94
2021/06/14 07:18:07;;;;;;;;;;;;;;;;;;4367665;32;20114;-94
2021/06/14 07:20:44;;;;;;;47.88;43.83;;;;;;;;;;4356231;32;21868;-95
2021/06/14 07:23:15;;;;;;;;;;;;;;;;;;4366788;32;20059;-95
2021/06/14 07:25:50;;;;;;;33.35;30.30;;;;;;;;;;4353830;32;19982;-94
2021/06/14 07:28:25;;;;;;;32.90;30.08;;;;;;;;;;4351911;32;20118;-96
2021/06/14 07:30:56;;;;;;;32.10;29.27;;;;;;;;;;4380959;32;20111;-94
2021/06/14 07:33:37;;;;;;;32.67;30.02;;;;;;;;;;4364952;32;20052;-96
2021/06/14 07:36:09;;;;;;;47.80;43.30;;;;;;;;;;4367448;32;20056;-95
2021/06/14 07:38:42;;;;;;;50.65;45.95;;;;;;;;;;4355378;32;20056;-96
2021/06/14 07:41:21;;;;;;;51.00;46.45;;;;;;;;;;4366031;32;20157;-95
2021/06/14 07:43:56;;;;;;;52.00;47.60;;;;;;;;;;4370558;32;20063;-93
2021/06/14 07:46:28;;;;;;;50.72;46.13;;;;;;;;;;4355123;32;20490;-96
2021/06/14 07:49:02;;;;;;;54.70;49.75;;;;;;;;;;4365345;32;20066;-94
2021/06/14 07:51:47;;;;;;;53.13;48.10;;;;;;;;;;4355521;32;20090;-96
2021/06/14 07:54:22;;;;;;;59.72;54.38;;;;;;;;;;4353730;32;20059;-96
2021/06/14 07:57:04;;;;;;;60.53;55.15;;;;;;;;;;4367470;32;20125;-95
2021/06/14 07:59:36;;;;;;;62.10;56.80;;;;;;;;;;4367583;32;20430;-95
2021/06/14 08:02:24;;;;;;;51.90;47.62;;;;;;;;;;4315082;33;20172;-95
2021/06/14 08:04:55;;;;;;;54.33;50.08;;;;;;;;;;4323262;33;20064;-94
2021/06/14 08:07:32;;;;;;;49.20;45.00;;;;;;;;;;4326486;33;20103;-95
2021/06/14 08:10:43;;;;;;;51.10;46.80;;;;;;;;;;4315388;33;20099;-96
2021/06/14 08:13:19;;;;;;;49.47;45.38;;;;;;;;;;4316275;33;20142;-95
2021/06/14 08:15:50;;;;;;;66.37;60.03;;;;;;;;;;4333741;33;20122;-96
2021/06/14 08:19:33;;;;;;;65.35;59.20;;;;;;;;;;4322322;33;20107;-96
2021/06/14 08:21:43;;;;;;;66.80;60.97;;;;;;;;;;4321619;33;20171;-95
2021/06/14 08:27:24;;;;;;;69.18;63.13;;;;;;;;;;4326605;33;20048;-96
2021/06/14 08:30:14;;;;;;;55.75;51.03;;;;;;;;;;4316882;33;20314;-94
2021/06/14 08:32:50;;;;;;;47.00;43.33;;;;;;;;;;4341869;32;20709;-96
2021/06/14 08:35:30;;;;;;;49.20;45.45;;;;;;;;;;4369367;32;20102;-96
2021/06/14 08:38:13;;;;;;;38.88;36.58;;;;;;;;;;4370122;32;20067;-95
2021/06/14 08:40:43;;;;;;;36.10;34.13;;;;;;;;;;4365436;32;20110;-94
2021/06/14 08:43:28;;;;;;;40.03;37.38;;;;;;;;;;4367544;32;20073;-95
2021/06/14 08:46:30;;;;;;;34.42;32.22;;;;;;;;;;4367852;32;20091;-95
2021/06/14 08:49:28;;;;;;;26.73;24.95;;;;;;;;;;4358674;32;20089;-96
2021/06/14 08:52:01;;;;;;;31.33;29.48;;;;;;;;;;4370485;32;20069;-95
2021/06/14 08:54:44;;;;;;;12.15;11.25;;;;;;;;;;4351046;32;20114;-96
2021/06/14 08:57:22;;;;;;;15.55;14.57;;;;;;;;;;4359242;32;20081;-96
2021/06/14 08:59:54;;;;;;;9.60;8.80;;;;;;;;;;4370869;32;20075;-96
2021/06/14 09:03:10;;;;;;;6.50;5.32;;;;;;;;;;4354752;32;20059;-96
2021/06/14 09:05:52;;;;;;;6.28;5.72;;;;;;;;;;4367475;32;20099;-96
2021/06/14 09:08:25;;;;;;;4.40;1.95;;;;;;;;;;4379014;32;20071;-96
2021/06/14 09:11:25;;;;;;;3.17;1.00;;;;;;;;;;4366240;32;20126;-96
2021/06/14 09:14:32;;;;;;;16.58;1.55;;;;;;;;;;4360674;32;20441;-96
2021/06/14 09:17:24;;;;;;;5.25;1.05;;;;;;;;;;4368624;32;20083;-95
2021/06/14 09:20:38;;;;;;;4.30;1.00;;;;;;;;;;4373757;32;20114;-96
2021/06/14 09:23:22;;;;;;;1.85;1.02;;;;;;;;;;4373434;32;20114;-96
2021/06/14 09:26:30;;;;;;;1.65;0.70;;;;;;;;;;4363206;32;20090;-96
2021/06/14 09:29:06;;;;;;;1.75;0.60;;;;;;;;;;4371146;32;20111;-96
2021/06/14 09:31:52;;;;;;;2.42;0.70;;;;;;;;;;4368893;32;20073;-96
2021/06/14 09:34:32;;;;;;;2.58;0.95;;;;;;;;;;4372265;32;20059;-95
2021/06/14 09:37:19;;;;;;;5.07;1.02;;;;;;;;;;4375806;32;20106;-96
2021/06/14 09:39:59;;;;;;;1.92;0.62;;;;;;;;;;4357253;32;20067;-95
2021/06/14 09:42:33;;;;;;;2.80;0.82;;;;;;;;;;4369272;32;20482;-94
2021/06/14 09:45:08;;;;;;;3.05;0.90;;;;;;;;;;4351401;32;20078;-95
2021/06/14 09:47:46;;;;;;;2.72;0.85;;;;;;;;;;4372838;32;20064;-96
2021/06/14 09:50:22;;;;;;;1.45;0.70;;;;;;;;;;4355576;32;20059;-96
2021/06/14 09:52:52;;;;;;;1.70;0.73;;;;;;;;;;4368341;32;20138;-96
2021/06/14 09:55:30;;;;;;;3.55;0.85;;;;;;;;;;4377988;32;20090;-95
2021/06/14 09:58:11;;;;;;;6.10;1.15;;;;;;;;;;4357385;32;20137;-96
2021/06/14 10:00:50;;;;;;;0.77;0.60;;;;;;;;;;4379065;32;20059;-96
2021/06/14 10:03:45;;;;;;;1.73;0.80;;;;;;;;;;4350708;32;20466;-96
2021/06/14 10:06:33;;;;;;;4.00;0.90;;;;;;;;;;4355032;32;20120;-96
2021/06/14 10:09:15;;;;;;;1.43;0.70;;;;;;;;;;4359380;32;20077;-96
2021/06/14 10:11:49;;;;;;;35.63;2.80;;;;;;;;;;4368085;32;20070;-96
2021/06/14 10:14:30;;;;;;;6.75;1.10;;;;;;;;;;4355262;32;20448;-96
2021/06/14 10:17:10;;;;;;;2.50;0.70;;;;;;;;;;4371185;32;20043;-96
2021/06/14 10:19:39;;;;;;;25.05;2.67;;;;;;;;;;4368982;32;20095;-96
2021/06/14 10:22:19;;;;;;;1.98;0.80;;;;;;;;;;4354329;32;20547;-96
2021/06/14 10:24:57;;;;;;;2.47;0.82;;;;;;;;;;4368751;32;20113;-96
2021/06/14 10:27:28;;;;;;;1.65;0.57;;;;;;;;;;4355300;32;20071;-95
2021/06/14 10:30:00;;;;;;;1.95;0.80;;;;;;;;;;4367817;32;20439;-96
2021/06/14 10:32:33;;;;;;;1.75;0.90;;;;;;;;;;4361692;32;20081;-95
2021/06/14 10:35:06;;;;;;;4.37;1.00;;;;;;;;;;4373226;32;20112;-96
2021/06/14 10:37:49;;;;;;;3.15;0.93;;;;;;;;;;4358730;32;20043;-96
2021/06/14 10:40:25;;;;;;;3.22;1.12;;;;;;;;;;4370961;32;20106;-95
2021/06/14 10:42:58;;;;;;;4.72;1.10;;;;;;;;;;4359754;32;20075;-96
2021/06/14 10:45:33;;;;;;;5.37;1.10;;;;;;;;;;4360175;32;20075;-96
2021/06/14 10:48:10;;;;;;;3.00;1.35;;;;;;;;;;4358590;32;20101;-94
2021/06/14 10:51:16;;;;;;;3.85;1.30;;;;;;;;;;4356718;32;20728;-94
2021/06/14 10:53:54;;;;;;;6.50;1.35;;;;;;;;;;4368322;32;20086;-94
2021/06/14 10:56:38;;;;;;;2.97;1.25;;;;;;;;;;4359246;32;20391;-95
2021/06/14 10:59:19;;;;;;;5.97;1.30;;;;;;;;;;4355802;32;20082;-96
2021/06/14 11:01:50;;;;;;;5.00;1.25;;;;;;;;;;4364941;32;20059;-96
2021/06/14 11:04:24;;;;;;;5.62;1.27;;;;;;;;;;4379743;32;20150;-96
2021/06/14 11:07:02;;;;;;;3.87;1.20;;;;;;;;;;4378974;32;20047;-96
2021/06/14 11:09:57;;;;;;;4.30;1.35;;;;;;;;;;4360968;32;20067;-96
2021/06/14 11:12:37;;;;;;;4.43;1.40;;;;;;;;;;4381489;32;20105;-96
2021/06/14 11:15:16;;;;;;;5.78;1.30;;;;;;;;;;4363143;32;20074;-96
2021/06/14 11:17:50;;;;;;;5.00;1.10;;;;;;;;;;4369829;32;20047;-95
2021/06/14 11:20:45;;;;;;;;;;;;;;;;;;;;;
2021/06/14 11:23:30;;;;;;;4.07;1.20;;;;;;;;;;4370908;32;20375;-96
2021/06/14 11:25:59;;;;;;;2.53;0.85;;;;;;;;;;4360730;32;20099;-96
2021/06/14 11:28:50;;;;;;;3.20;1.10;;;;;;;;;;4375174;32;20116;-95
2021/06/14 11:31:32;;;;;;;5.35;1.08;;;;;;;;;;4364638;32;20083;-94
2021/06/14 11:34:25;;;;;;;2.80;0.90;;;;;;;;;;4364307;32;20439;-95
2021/06/14 11:37:00;;;;;;;;;;;;;;;;;;4380528;32;20106;-94
2021/06/14 11:39:32;;;;;;;6.47;1.20;;;;;;;;;;4354266;32;19946;-94
2021/06/14 11:42:09;;;;;;;2.70;0.93;;;;;;;;;;4366281;32;20132;-94
2021/06/14 11:44:52;;;;;;;2.80;0.88;;;;;;;;;;4369387;32;20353;-96
2021/06/14 11:47:27;;;;;;;3.17;0.68;;;;;;;;;;4367556;32;20099;-92
2021/06/14 11:50:07;;;;;;;3.42;0.80;;;;;;;;;;4376723;32;20142;-96
2021/06/14 11:53:02;;;;;;;5.82;0.95;;;;;;;;;;4367018;32;20086;-94
2021/06/14 11:56:03;;;;;;;13.00;1.60;;;;;;;;;;4357513;32;20110;-93
2021/06/14 11:58:40;;;;;;;4.87;0.90;;;;;;;;;;4365775;32;20153;-95
2021/06/14 12:01:34;;;;;;;1.87;0.90;;;;;;;;;;4369944;32;20173;-95
2021/06/14 12:04:07;;;;;;;7.65;1.17;;;;;;;;;;4367415;32;20678;-95
2021/06/14 12:06:44;;;;;;;4.22;1.00;;;;;;;;;;4370848;32;20521;-94
2021/06/14 12:09:26;;;;;;;5.65;0.90;;;;;;;;;;4365317;32;20499;-95
2021/06/14 12:12:05;;;;;;;6.62;1.10;;;;;;;;;;4365802;32;20086;-95
2021/06/14 12:14:58;;;;;;;3.22;0.80;;;;;;;;;;4367276;32;20098;-96
2021/06/14 12:17:35;;;;;;;5.40;1.00;;;;;;;;;;4368585;32;20135;-95
2021/06/14 12:20:08;;;;;;;5.18;0.98;;;;;;;;;;4360059;32;20036;-95
2021/06/14 12:22:40;;;;;;;2.15;0.60;;;;;;;;;;4347980;32;20064;-94
2021/06/14 12:25:16;;;;;;;4.45;1.08;;;;;;;;;;4367751;32;20562;-95
2021/06/14 12:28:08;;;;;;;9.88;1.45;;;;;;;;;;4368551;32;20051;-94
2021/06/14 12:30:42;;;;;;;1.75;0.60;;;;;;;;;;4358741;32;20086;-95
2021/06/14 12:33:33;;;;;;;4.18;1.00;;;;;;;;;;4361158;32;20189;-94
2021/06/14 12:36:07;;;;;;;2.47;0.82;;;;;;;;;;4357742;32;20090;-96
2021/06/14 12:39:13;;;;;;;3.00;0.90;;;;;;;;;;4357397;32;20059;-96
2021/06/14 12:41:44;;;;;;;2.97;0.60;;;;;;;;;;4360019;32;20043;-96
2021/06/14 12:44:22;;;;;;;2.70;0.90;;;;;;;;;;4375312;32;20085;-96
2021/06/14 12:46:59;;;;;;;3.28;0.80;;;;;;;;;;4366222;32;20079;-96
2021/06/14 12:49:36;;;;;;;1.73;0.60;;;;;;;;;;4375292;32;20486;-96
2021/06/14 12:52:18;;;;;;;2.85;0.73;;;;;;;;;;4373810;32;20047;-93
2021/06/14 12:55:05;;;;;;;1.70;0.73;;;;;;;;;;4375451;32;20149;-93
2021/06/14 12:57:38;;;;;;;1.42;0.60;;;;;;;;;;4356520;32;20072;-94
2021/06/14 13:00:14;;;;;;;3.50;0.80;;;;;;;;;;4358084;32;20078;-95
2021/06/14 13:02:54;;;;;;;1.83;0.62;;;;;;;;;;4372028;32;20487;-96
2021/06/14 13:05:35;;;;;;;1.73;0.80;;;;;;;;;;4364815;32;20121;-96
2021/06/14 13:08:15;;;;;;;1.02;0.57;;;;;;;;;;4358993;32;20099;-95
2021/06/14 13:10:54;;;;;;;10.98;1.15;;;;;;;;;;4370133;32;20072;-95
2021/06/14 13:13:37;;;;;;;1.40;0.73;;;;;;;;;;4364738;32;20047;-96
2021/06/14 13:16:19;;;;;;;3.58;0.60;;;;;;;;;;4360521;32;20059;-94
2021/06/14 13:19:01;;;;;;;7.62;1.58;;;;;;;;;;4362373;32;20520;-96
2021/06/14 13:21:54;;;;;;;40.90;4.15;;;;;;;;;;4380036;32;20059;-96
2021/06/14 13:24:40;;;;;;;1.40;0.80;;;;;;;;;;4360484;32;20073;-96
2021/06/14 13:27:22;;;;;;;1.77;0.70;;;;;;;;;;4371980;32;20083;-96
2021/06/14 13:29:57;;;;;;;2.65;0.80;;;;;;;;;;4362701;32;20109;-94
2021/06/14 13:32:49;;;;;;;3.03;0.60;;;;;;;;;;4370715;32;20130;-95
2021/06/14 13:35:22;;;;;;;3.08;0.68;;;;;;;;;;4360487;32;20071;-96
2021/06/14 13:37:57;;;;;;;2.78;0.70;;;;;;;;;;4358318;32;21863;-95
2021/06/14 13:40:31;;;;;;;2.58;0.62;;;;;;;;;;4371694;32;20055;-94
2021/06/14 13:43:11;;;;;;;2.42;0.70;;;;;;;;;;4365050;32;20062;-96
2021/06/14 13:45:51;;;;;;;2.65;0.90;;;;;;;;;;4368630;32;20047;-95
2021/06/14 13:48:28;;;;;;;2.35;0.80;;;;;;;;;;4369398;32;20056;-96
2021/06/14 13:51:00;;;;;;;2.67;0.73;;;;;;;;;;4375497;32;20094;-96
2021/06/14 13:53:47;;;;;;;4.72;1.00;;;;;;;;;;4368488;32;20601;-95
2021/06/14 13:56:19;;;;;;;3.65;0.73;;;;;;;;;;4377113;32;20077;-95
2021/06/14 13:58:54;;;;;;;2.28;0.70;;;;;;;;;;4353689;32;20044;-94
2021/06/14 14:01:28;;;;;;;1.80;0.65;;;;;;;;;;4381642;32;20064;-96
2021/06/14 14:04:19;;;;;;;2.92;0.80;;;;;;;;;;4369699;32;20036;-94
2021/06/14 14:06:56;;;;;;;1.75;0.70;;;;;;;;;;4369952;32;20148;-96
2021/06/14 14:09:29;;;;;;;2.83;0.77;;;;;;;;;;4360035;32;20043;-94
2021/06/14 14:12:09;;;;;;;3.55;0.93;;;;;;;;;;4371004;32;20101;-94
2021/06/14 14:14:46;;;;;;;3.05;1.00;;;;;;;;;;4371023;32;20501;-96
2021/06/14 14:17:18;;;;;;;14.52;1.50;;;;;;;;;;4381041;32;20047;-96
2021/06/14 14:19:51;;;;;;;3.72;0.93;;;;;;;;;;4368719;32;20866;-96
2021/06/14 14:22:40;;;;;;;4.53;1.00;;;;;;;;;;4370107;32;20035;-95
2021/06/14 14:25:15;;;;;;;1.95;0.70;;;;;;;;;;4358286;32;20102;-95
2021/06/14 14:27:57;;;;;;;5.22;0.90;;;;;;;;;;4371398;32;20063;-96
2021/06/14 14:30:42;;;;;;;58.28;4.37;;;;;;;;;;4368769;32;20081;-95
2021/06/14 14:33:21;;;;;;;2.05;0.70;;;;;;;;;;4382962;32;20075;-96
2021/06/14 14:36:04;;;;;;;7.62;1.10;;;;;;;;;;4360762;32;20653;-96
2021/06/14 14:38:43;;;;;;;1.95;0.90;;;;;;;;;;4372939;32;20051;-96
2021/06/14 14:41:19;;;;;;;2.33;0.77;;;;;;;;;;4352419;32;20066;-95
2021/06/14 14:43:51;;;;;;;3.22;0.90;;;;;;;;;;4368987;32;20071;-96
2021/06/14 14:46:26;;;;;;;2.50;0.80;;;;;;;;;;4381086;32;20083;-96
2021/06/14 14:49:01;;;;;;;2.37;0.70;;;;;;;;;;4371197;32;20312;-96
2021/06/14 14:51:44;;;;;;;1.40;0.68;;;;;;;;;;4370247;32;20043;-96
2021/06/14 14:54:21;;;;;;;1.83;0.60;;;;;;;;;;4369870;32;20087;-95
2021/06/14 14:56:57;;;;;;;3.33;0.80;;;;;;;;;;4346933;32;20059;-96
2021/06/14 14:59:39;;;;;;;5.47;0.95;;;;;;;;;;4370254;32;20060;-96
2021/06/14 15:02:14;;;;;;;4.28;0.77;;;;;;;;;;4359622;32;20066;-96
2021/06/14 15:04:54;;;;;;;2.60;0.62;;;;;;;;;;4357717;32;20485;-95
2021/06/14 15:07:27;;;;;;;3.95;0.80;;;;;;;;;;4368856;32;20094;-94
2021/06/14 15:09:59;;;;;;;10.32;1.70;;;;;;;;;;4356505;32;20126;-95
2021/06/14 15:12:35;;;;;;;3.72;1.00;;;;;;;;;;4367835;32;20055;-95
2021/06/14 15:15:24;;;;;;;2.17;0.82;;;;;;;;;;4377037;32;20090;-96
2021/06/14 15:17:55;;;;;;;2.35;0.75;;;;;;;;;;4365303;32;20326;-94
2021/06/14 15:20:31;;;;;;;4.30;1.00;;;;;;;;;;4365405;32;20131;-95
2021/06/14 15:23:05;;;;;;;4.32;0.62;;;;;;;;;;4369719;32;20063;-96
2021/06/14 15:25:43;;;;;;;1.05;0.70;;;;;;;;;;4373613;32;20479;-94
2021/06/14 15:28:11;;;;;;;2.12;0.70;;;;;;;;;;4368196;32;20124;-95
2021/06/14 15:31:02;;;;;;;3.85;0.82;;;;;;;;;;4369609;32;20074;-96
2021/06/14 15:33:39;;;;;;;3.12;0.88;;;;;;;;;;4369375;32;20082;-96
2021/06/14 15:36:24;;;;;;;3.62;0.77;;;;;;;;;;4370236;32;20077;-95
2021/06/14 15:39:01;;;;;;;5.18;1.17;;;;;;;;;;4378788;32;20513;-95